Newmarket, New Hampshire
Current Conditions -  °F | °C
As of 8:58 PM on Friday 21 Nov 2014 (Local Time) from KPSM Reporting Station
Clear Clear  
Wind Chill: 15°   Ceiling: Unl
Heat Index: 26°   Visibility: 10mi
Dew Point:   Wind: 12mph
Humidity: 40%   Direction: 280°W
Pressure: 30.33"   Gusts: 18mph
Location:  43.08°N, 70.94°W
Report Text: KPSM 220158Z 28010G16KT 10SM CLR M03/M15 A3033 RMK AO2A SLP275 T10341154
Loading
Personal Weather Stations






























Interactive Weather Map New forecast layout! Learn more

10-Day Weather Forecast

Advertisements
Track Severe Weather on mobile